Time;durP1;ratioP1;P1;durP2;ratioP2;P2;SDS_P1;SDS_P2;PMS_P1;PMS_P2;Temp;Humidity;BMP_temperature;BMP_pressure;BME280_temperature;BME280_humidity;BME280_pressure;Samples;Min_cycle;Max_cycle;Signal;HPM_P1;HPM_P2
2021/04/07 00:02:00;;;;;;;4.00;3.80;;;3.90;39.60;;;;;;5055017;28;20178;-65
2021/04/07 00:04:26;;;;;;;3.80;3.60;;;3.80;40.80;;;;;;5020331;28;20215;-66
2021/04/07 00:06:54;;;;;;;4.10;3.80;;;3.70;39.90;;;;;;5054593;28;20639;-66
2021/04/07 00:09:20;;;;;;;3.90;3.70;;;4.00;40.20;;;;;;5054871;28;20418;-66
2021/04/07 00:11:45;;;;;;;4.47;3.60;;;4.20;39.10;;;;;;5054825;28;20889;-66
2021/04/07 00:14:11;;;;;;;3.83;3.43;;;3.90;39.50;;;;;;5054658;28;20255;-66
2021/04/07 00:16:37;;;;;;;3.53;3.30;;;3.90;39.40;;;;;;5054818;28;20204;-65
2021/04/07 00:19:06;;;;;;;4.20;3.87;;;4.00;40.10;;;;;;5054786;28;20495;-66
2021/04/07 00:21:32;;;;;;;3.83;3.60;;;4.00;39.30;;;;;;5054739;28;20236;-66
2021/04/07 00:23:57;;;;;;;4.17;3.87;;;4.20;39.60;;;;;;5036470;28;20474;-65
2021/04/07 00:26:23;;;;;;;3.70;3.50;;;4.30;38.50;;;;;;5054499;28;20199;-66
2021/04/07 00:28:48;;;;;;;3.50;3.30;;;4.20;37.80;;;;;;5054603;28;20543;-66
2021/04/07 00:31:14;;;;;;;3.67;3.47;;;3.90;39.40;;;;;;5054578;28;20179;-66
2021/04/07 00:33:39;;;;;;;3.93;3.60;;;4.00;38.80;;;;;;5054591;28;20184;-65
2021/04/07 00:36:05;;;;;;;3.47;3.17;;;3.90;39.40;;;;;;5054063;28;20200;-66
2021/04/07 00:38:31;;;;;;;3.60;3.40;;;3.80;40.30;;;;;;5054478;28;20176;-67
2021/04/07 00:40:56;;;;;;;3.60;3.40;;;4.00;39.60;;;;;;5054235;28;20441;-67
2021/04/07 00:43:22;;;;;;;3.27;3.07;;;4.20;39.70;;;;;;5054362;28;20204;-65
2021/04/07 00:45:47;;;;;;;3.70;3.50;;;3.90;38.90;;;;;;5054355;28;20613;-65
2021/04/07 00:48:13;;;;;;;3.50;3.30;;;3.90;40.20;;;;;;5054437;28;20180;-66
2021/04/07 00:50:38;;;;;;;4.00;3.53;;;3.80;40.30;;;;;;5065502;28;20183;-66
2021/04/07 00:53:04;;;;;;;7.07;3.90;;;3.80;40.00;;;;;;5054304;28;20184;-66
2021/04/07 00:55:36;;;;;;;5.10;3.57;;;3.90;40.60;;;;;;5053733;28;20624;-65
2021/04/07 00:58:03;;;;;;;4.47;3.67;;;4.30;39.40;;;;;;5054151;28;20173;-66
2021/04/07 01:00:29;;;;;;;3.83;3.53;;;4.20;39.30;;;;;;5053996;28;20438;-66
2021/04/07 01:02:57;;;;;;;4.23;3.90;;;4.20;39.50;;;;;;5054088;28;20442;-67
2021/04/07 01:05:23;;;;;;;4.67;3.23;;;4.20;40.50;;;;;;5053687;28;20437;-66
2021/04/07 01:07:49;;;;;;;3.90;3.60;;;4.40;38.60;;;;;;5035924;28;20517;-65
2021/04/07 01:10:15;;;;;;;3.90;3.60;;;4.30;37.90;;;;;;5053753;28;20409;-67
2021/04/07 01:12:44;;;;;;;4.13;3.83;;;3.90;38.70;;;;;;5053794;28;20176;-66
2021/04/07 01:15:11;;;;;;;4.43;3.90;;;4.10;39.00;;;;;;5053648;28;20899;-66
2021/04/07 01:17:37;;;;;;;4.23;3.93;;;3.90;38.80;;;;;;5053828;28;20514;-66
2021/04/07 01:20:08;;;;;;;3.83;3.53;;;3.90;39.40;;;;;;5053724;28;20415;-66
2021/04/07 01:22:36;;;;;;;5.60;4.03;;;4.20;38.10;;;;;;5064372;28;20434;-66
2021/04/07 01:25:03;;;;;;;3.50;3.30;;;4.10;37.70;;;;;;5053294;28;20478;-65
2021/04/07 01:27:29;;;;;;;4.17;3.60;;;4.00;38.40;;;;;;5053615;28;21058;-65
2021/04/07 01:29:55;;;;;;;4.37;4.07;;;3.90;37.60;;;;;;5053514;28;20493;-66
2021/04/07 01:32:20;;;;;;;3.73;3.53;;;4.20;37.40;;;;;;5053498;28;20255;-66
2021/04/07 01:34:46;;;;;;;4.10;3.80;;;4.20;37.10;;;;;;5053154;28;20199;-65
2021/04/07 01:37:14;;;;;;;3.53;3.13;;;3.90;37.90;;;;;;5053450;28;20180;-64
2021/04/07 01:39:41;;;;;;;3.80;3.60;;;3.90;37.60;;;;;;5053315;28;20203;-64
2021/04/07 01:42:08;;;;;;;4.23;3.93;;;4.00;38.50;;;;;;5035371;28;20921;-65
2021/04/07 01:44:36;;;;;;;3.80;3.60;;;4.10;36.50;;;;;;5052918;28;20814;-66
2021/04/07 01:47:02;;;;;;;5.70;4.37;;;3.90;37.10;;;;;;5053141;28;20789;-65
2021/04/07 01:49:28;;;;;;;4.47;4.20;;;3.80;37.50;;;;;;5053150;28;20921;-65
2021/04/07 01:51:54;;;;;;;4.27;3.87;;;3.80;37.50;;;;;;5052929;28;20422;-66
2021/04/07 01:54:20;;;;;;;5.60;3.70;;;3.90;37.20;;;;;;5052750;28;20818;-66
2021/04/07 01:56:46;;;;;;;4.07;3.77;;;4.00;37.00;;;;;;5052944;28;20468;-64
2021/04/07 01:59:12;;;;;;;5.17;3.60;;;4.00;36.50;;;;;;5052954;28;20250;-64
2021/04/07 02:01:38;;;;;;;4.43;4.03;;;4.10;36.30;;;;;;5052817;28;20956;-65
2021/04/07 02:04:05;;;;;;;4.70;3.90;;;4.00;36.40;;;;;;5052550;28;20492;-64
2021/04/07 02:06:31;;;;;;;4.77;4.47;;;4.00;35.70;;;;;;5052307;28;20200;-65
2021/04/07 02:08:57;;;;;;;4.77;4.37;;;3.80;36.60;;;;;;5052839;28;20831;-65
2021/04/07 02:11:22;;;;;;;4.23;3.83;;;3.80;37.00;;;;;;5052442;28;20183;-65
2021/04/07 02:13:48;;;;;;;4.63;4.23;;;4.00;36.50;;;;;;5052622;28;20764;-65
2021/04/07 02:16:15;;;;;;;4.80;4.40;;;4.10;35.20;;;;;;5052296;28;20285;-65
2021/04/07 02:18:44;;;;;;;4.33;3.93;;;4.00;36.00;;;;;;5052629;28;20411;-65
2021/04/07 02:21:11;;;;;;;4.20;3.80;;;3.90;36.40;;;;;;5052053;28;20410;-65
2021/04/07 02:23:38;;;;;;;5.27;4.87;;;3.80;37.50;;;;;;5050880;28;20480;-65
2021/04/07 02:26:05;;;;;;;5.63;5.00;;;3.70;36.80;;;;;;5052070;28;20430;-65
2021/04/07 02:28:31;;;;;;;4.80;4.50;;;3.70;36.80;;;;;;5052349;28;20407;-64
2021/04/07 02:30:57;;;;;;;5.00;4.60;;;3.90;36.70;;;;;;5052224;28;20433;-65
2021/04/07 02:33:22;;;;;;;6.70;4.60;;;3.80;36.20;;;;;;5052226;28;20437;-65
2021/04/07 02:35:48;;;;;;;5.33;4.87;;;3.80;36.10;;;;;;5051909;28;20498;-65
2021/04/07 02:38:14;;;;;;;5.30;4.80;;;3.70;36.80;;;;;;5052279;28;20171;-65
2021/04/07 02:40:39;;;;;;;4.27;4.03;;;4.00;36.20;;;;;;5052087;28;20176;-66
2021/04/07 02:43:05;;;;;;;4.90;4.40;;;3.80;35.10;;;;;;5051978;28;20175;-66
2021/04/07 02:45:31;;;;;;;5.37;5.03;;;4.00;35.20;;;;;;5051808;28;20191;-63
2021/04/07 02:47:57;;;;;;;5.07;4.70;;;4.00;36.40;;;;;;5051903;28;20168;-65
2021/04/07 02:50:22;;;;;;;5.87;5.47;;;3.90;35.70;;;;;;5057060;28;20670;-66
2021/04/07 02:52:48;;;;;;;5.17;4.77;;;4.20;35.00;;;;;;5070652;28;20417;-64
2021/04/07 02:55:14;;;;;;;10.13;5.10;;;3.90;35.00;;;;;;5070890;28;20191;-64
2021/04/07 02:57:39;;;;;;;5.93;5.03;;;4.20;35.10;;;;;;5051072;28;20313;-66
2021/04/07 03:00:07;;;;;;;5.90;4.73;;;4.20;34.00;;;;;;5051923;28;20542;-64
2021/04/07 03:02:32;;;;;;;4.90;4.57;;;4.20;34.50;;;;;;5069305;28;20599;-65
2021/04/07 03:04:58;;;;;;;4.83;4.53;;;4.00;35.00;;;;;;5061154;28;20458;-65
2021/04/07 03:07:24;;;;;;;5.40;4.90;;;4.10;35.30;;;;;;5051731;28;20249;-65
2021/04/07 03:09:50;;;;;;;5.27;4.97;;;3.80;35.80;;;;;;5051767;28;20176;-65
2021/04/07 03:12:15;;;;;;;4.57;4.30;;;3.90;35.10;;;;;;5051754;28;20479;-64
2021/04/07 03:14:41;;;;;;;5.80;4.40;;;3.90;35.60;;;;;;5051545;28;20192;-65
2021/04/07 03:17:06;;;;;;;4.87;4.47;;;3.90;36.30;;;;;;5051624;28;20206;-65
2021/04/07 03:19:32;;;;;;;4.87;4.57;;;4.00;34.90;;;;;;5051679;28;20179;-65
2021/04/07 03:21:58;;;;;;;4.57;4.30;;;4.10;35.20;;;;;;5053319;28;20179;-65
2021/04/07 03:24:23;;;;;;;4.50;4.10;;;4.20;35.80;;;;;;5057409;28;20215;-65
2021/04/07 03:26:49;;;;;;;5.37;4.50;;;4.40;34.60;;;;;;5071263;28;20266;-64
2021/04/07 03:29:15;;;;;;;4.80;4.50;;;4.40;34.20;;;;;;5070607;28;20218;-64
2021/04/07 03:31:40;;;;;;;6.43;5.00;;;4.60;34.80;;;;;;5056355;28;20267;-65
2021/04/07 03:34:06;;;;;;;5.40;4.90;;;4.50;33.20;;;;;;5067325;28;20426;-65
2021/04/07 03:36:32;;;;;;;4.73;4.43;;;4.30;35.10;;;;;;5066156;28;20207;-65
2021/04/07 03:38:57;;;;;;;4.63;4.33;;;4.30;34.10;;;;;;5067162;28;20184;-65
2021/04/07 03:41:22;;;;;;;4.63;4.30;;;4.20;33.70;;;;;;5065404;28;20184;-65
2021/04/07 03:43:48;;;;;;;5.70;5.20;;;4.20;34.50;;;;;;5055164;28;20204;-64
2021/04/07 03:46:16;;;;;;;5.40;4.73;;;4.20;34.20;;;;;;5055061;28;20223;-64
2021/04/07 03:48:42;;;;;;;3.90;3.70;;;3.70;35.00;;;;;;5055302;28;20232;-63
2021/04/07 03:51:07;;;;;;;5.10;4.70;;;3.70;36.30;;;;;;5055291;28;20418;-63
2021/04/07 03:53:33;;;;;;;4.70;4.40;;;3.90;35.50;;;;;;5055189;28;20176;-64
2021/04/07 03:55:58;;;;;;;4.00;3.80;;;3.90;36.00;;;;;;5054557;28;20187;-64
2021/04/07 03:58:25;;;;;;;4.33;4.00;;;4.00;35.00;;;;;;5055138;28;20247;-65
2021/04/07 04:00:51;;;;;;;4.10;3.80;;;4.00;35.20;;;;;;5055219;28;20172;-64
2021/04/07 04:03:17;;;;;;;4.77;4.23;;;4.00;35.70;;;;;;5062253;28;20914;-65
2021/04/07 04:05:43;;;;;;;4.17;3.80;;;4.20;36.60;;;;;;5074738;28;20429;-65
2021/04/07 04:08:09;;;;;;;3.87;3.57;;;4.10;34.60;;;;;;5075044;28;20513;-65
2021/04/07 04:10:35;;;;;;;4.13;3.83;;;4.20;35.30;;;;;;5075255;28;20186;-64
2021/04/07 04:13:03;;;;;;;3.80;3.50;;;4.00;33.80;;;;;;5075022;28;20510;-64
2021/04/07 04:15:28;;;;;;;3.37;3.07;;;3.90;33.80;;;;;;5074648;28;20425;-63
2021/04/07 04:17:54;;;;;;;3.70;3.40;;;4.10;33.90;;;;;;5054582;28;20842;-63
2021/04/07 04:20:20;;;;;;;4.33;3.77;;;4.00;33.80;;;;;;5054846;28;20168;-64
2021/04/07 04:22:46;;;;;;;3.93;3.63;;;3.90;34.30;;;;;;5054675;28;20180;-64
2021/04/07 04:25:15;;;;;;;4.00;3.47;;;4.10;34.10;;;;;;5054285;28;20470;-65
2021/04/07 04:27:40;;;;;;;7.57;4.17;;;4.20;33.20;;;;;;5054719;28;20401;-64
2021/04/07 04:30:17;;;;;;;4.13;3.93;;;4.20;34.00;;;;;;5054554;28;20781;-65
2021/04/07 04:32:43;;;;;;;4.20;3.80;;;4.40;33.70;;;;;;5054498;28;20175;-65
2021/04/07 04:35:10;;;;;;;5.70;4.80;;;4.50;33.40;;;;;;5054272;28;20433;-65
2021/04/07 04:37:36;;;;;;;3.40;3.20;;;4.40;33.00;;;;;;5054527;28;20186;-65
2021/04/07 04:40:03;;;;;;;3.93;3.63;;;4.20;32.80;;;;;;5054436;28;20423;-65
2021/04/07 04:42:28;;;;;;;4.20;3.90;;;4.10;33.50;;;;;;5036452;28;20419;-65
2021/04/07 04:44:54;;;;;;;3.47;3.20;;;4.20;32.80;;;;;;5053906;28;20470;-62
2021/04/07 04:47:19;;;;;;;4.63;3.50;;;4.00;32.80;;;;;;5052041;28;20267;-63
2021/04/07 04:49:45;;;;;;;4.47;4.10;;;4.10;34.30;;;;;;5074053;28;20261;-63
2021/04/07 04:52:10;;;;;;;3.90;3.33;;;4.10;32.50;;;;;;5044367;28;20211;-63
2021/04/07 04:54:36;;;;;;;7.50;3.77;;;4.10;33.00;;;;;;5059561;28;20196;-62
2021/04/07 04:57:02;;;;;;;3.93;3.63;;;4.00;32.90;;;;;;5053589;28;20174;-63
2021/04/07 04:59:27;;;;;;;4.90;4.40;;;4.30;32.90;;;;;;5053755;28;20219;-63
2021/04/07 05:01:53;;;;;;;3.93;3.63;;;4.10;32.50;;;;;;5065520;28;20480;-63
2021/04/07 05:04:18;;;;;;;4.00;3.57;;;4.20;32.20;;;;;;5059833;28;20211;-62
2021/04/07 05:06:44;;;;;;;5.50;4.87;;;4.30;31.90;;;;;;5035756;28;20183;-62
2021/04/07 05:09:10;;;;;;;5.17;3.40;;;4.20;32.30;;;;;;5053500;28;20179;-63
2021/04/07 05:11:35;;;;;;;4.03;3.73;;;4.00;31.80;;;;;;5036006;28;20176;-62
2021/04/07 05:14:02;;;;;;;3.70;3.20;;;4.00;31.70;;;;;;5053368;28;20176;-64
2021/04/07 05:16:29;;;;;;;5.47;3.57;;;4.10;31.80;;;;;;5053344;28;20200;-64
2021/04/07 05:18:55;;;;;;;4.17;3.87;;;4.10;31.90;;;;;;5053385;28;20415;-64
2021/04/07 05:21:21;;;;;;;4.60;4.30;;;3.90;32.40;;;;;;5053392;28;20415;-63
2021/04/07 05:23:47;;;;;;;3.87;3.53;;;3.90;32.60;;;;;;5052888;28;20536;-63
2021/04/07 05:26:12;;;;;;;3.33;3.13;;;3.90;32.80;;;;;;5052953;28;20920;-62
2021/04/07 05:28:41;;;;;;;3.20;3.00;;;4.00;32.00;;;;;;5053186;28;20904;-64
2021/04/07 05:31:08;;;;;;;3.97;3.67;;;3.90;32.90;;;;;;5053332;28;20171;-63
2021/04/07 05:33:35;;;;;;;3.80;3.27;;;3.80;33.20;;;;;;5053298;28;20445;-64
2021/04/07 05:36:03;;;;;;;4.10;3.80;;;4.00;32.40;;;;;;5052535;28;20466;-64
2021/04/07 05:38:29;;;;;;;3.87;3.43;;;3.90;32.70;;;;;;5054298;28;20965;-64
2021/04/07 05:40:58;;;;;;;4.60;4.20;;;3.80;32.50;;;;;;5058274;28;20477;-63
2021/04/07 05:43:25;;;;;;;9.23;4.20;;;3.80;32.80;;;;;;5072237;28;20877;-64
2021/04/07 05:45:51;;;;;;;4.43;4.13;;;3.70;32.20;;;;;;5070818;28;20441;-63
2021/04/07 05:48:16;;;;;;;3.97;2.87;;;3.80;32.20;;;;;;5072894;28;20405;-64
2021/04/07 05:50:44;;;;;;;3.53;3.23;;;3.80;31.60;;;;;;5072110;28;20190;-64
2021/04/07 05:53:11;;;;;;;4.37;3.70;;;3.70;32.30;;;;;;5072986;28;20412;-64
2021/04/07 05:55:37;;;;;;;4.33;3.97;;;3.80;32.20;;;;;;5050524;28;20449;-64
2021/04/07 05:58:05;;;;;;;4.40;3.23;;;3.80;32.10;;;;;;5052507;28;20780;-64
2021/04/07 06:00:31;;;;;;;3.30;3.07;;;4.20;31.90;;;;;;5050778;28;20805;-64
2021/04/07 06:02:58;;;;;;;10.93;4.30;;;4.20;30.80;;;;;;5050982;28;20497;-63
2021/04/07 06:05:28;;;;;;;7.20;5.17;;;6.40;93.30;;;;;;5051210;28;20525;-64
2021/04/07 06:07:57;;;;;;;3.50;3.20;;;8.90;43.00;;;;;;5051454;28;20894;-64
2021/04/07 06:10:27;;;;;;;5.33;4.10;;;6.90;26.20;;;;;;5052014;28;20402;-63
2021/04/07 06:12:56;;;;;;;4.70;3.67;;;7.50;31.80;;;;;;5052688;28;20468;-64
2021/04/07 06:15:22;;;;;;;3.40;3.10;;;7.50;51.80;;;;;;5052262;28;20429;-64
2021/04/07 06:18:02;;;;;;;5.20;3.67;;;7.60;25.80;;;;;;5052488;28;20414;-64
2021/04/07 06:20:31;;;;;;;3.10;2.90;;;7.70;23.90;;;;;;5052087;28;21139;-64
2021/04/07 06:22:57;;;;;;;2.83;2.60;;;6.50;28.20;;;;;;5052046;28;20419;-64
2021/04/07 06:25:23;;;;;;;3.63;3.30;;;7.60;29.40;;;;;;5051742;28;20541;-64
2021/04/07 06:27:51;;;;;;;2.97;2.67;;;8.30;32.10;;;;;;5052640;28;20970;-64
2021/04/07 06:30:18;;;;;;;3.60;3.30;;;8.10;29.70;;;;;;5052224;28;20403;-64
2021/04/07 06:32:44;;;;;;;4.17;2.97;;;6.70;24.90;;;;;;5052264;28;20405;-64
2021/04/07 06:35:10;;;;;;;5.00;3.40;;;6.00;26.10;;;;;;5051619;28;20430;-66
2021/04/07 06:37:35;;;;;;;4.70;3.40;;;5.10;27.90;;;;;;5052096;28;20517;-63
2021/04/07 06:40:01;;;;;;;4.83;3.40;;;4.90;28.00;;;;;;5052071;28;20421;-64
2021/04/07 06:42:27;;;;;;;3.13;2.93;;;5.00;27.70;;;;;;5051967;28;20724;-64
2021/04/07 06:44:53;;;;;;;3.10;2.80;;;4.80;27.70;;;;;;5052152;28;20473;-65
2021/04/07 06:47:19;;;;;;;3.30;2.97;;;4.70;27.90;;;;;;5052339;28;20179;-65
2021/04/07 06:49:48;;;;;;;3.60;3.30;;;4.70;28.70;;;;;;5071731;28;20186;-65
2021/04/07 06:52:19;;;;;;;2.80;2.60;;;4.70;28.60;;;;;;5072012;28;20413;-66
2021/04/07 06:54:46;;;;;;;3.37;3.07;;;4.50;28.50;;;;;;5071680;28;20504;-66
2021/04/07 06:57:14;;;;;;;3.80;3.47;;;4.60;28.60;;;;;;5071877;28;20779;-65
2021/04/07 06:59:42;;;;;;;3.50;3.17;;;4.80;29.60;;;;;;5071713;28;20409;-67
2021/04/07 07:02:08;;;;;;;3.97;2.93;;;4.70;28.60;;;;;;5065177;28;20521;-65
2021/04/07 07:04:33;;;;;;;3.67;3.37;;;4.50;28.50;;;;;;5058052;28;20520;-66
2021/04/07 07:07:00;;;;;;;4.70;3.53;;;4.40;28.40;;;;;;5051763;28;20410;-66
2021/04/07 07:09:25;;;;;;;3.70;3.23;;;4.30;28.80;;;;;;5033574;28;20262;-65
2021/04/07 07:11:51;;;;;;;3.60;3.00;;;4.30;29.10;;;;;;5051593;28;20453;-65
2021/04/07 07:14:19;;;;;;;3.40;3.10;;;4.50;28.50;;;;;;5062412;28;20270;-66
2021/04/07 07:16:49;;;;;;;4.20;2.20;;;4.50;28.50;;;;;;5058795;28;20441;-66
2021/04/07 07:19:26;;;;;;;5.00;3.50;;;4.50;28.50;;;;;;5051834;28;20426;-64
2021/04/07 07:21:54;;;;;;;4.73;3.40;;;4.10;29.30;;;;;;5050138;28;20977;-68
2021/04/07 07:24:53;;;;;;;2.47;2.37;;;4.10;29.10;;;;;;5050905;28;20568;-66
2021/04/07 07:27:19;;;;;;;3.00;2.63;;;4.10;29.00;;;;;;5043114;28;20468;-68
2021/04/07 07:29:54;;;;;;;3.20;3.00;;;4.00;28.60;;;;;;5054773;28;20822;-66
2021/04/07 07:32:20;;;;;;;6.17;3.63;;;4.20;28.50;;;;;;5033243;28;20268;-67
2021/04/07 07:34:46;;;;;;;3.70;2.90;;;4.30;28.90;;;;;;5068090;28;20507;-64
2021/04/07 07:37:23;;;;;;;7.00;3.13;;;4.20;28.30;;;;;;5071383;28;20282;-65
2021/04/07 07:39:49;;;;;;;4.07;2.90;;;4.20;27.90;;;;;;5059251;28;20188;-66
2021/04/07 07:42:16;;;;;;;3.20;3.00;;;4.10;28.40;;;;;;5051195;28;20925;-65
2021/04/07 07:44:42;;;;;;;2.80;2.60;;;4.10;28.80;;;;;;5050658;28;20208;-66
2021/04/07 07:47:21;;;;;;;3.27;2.97;;;4.10;28.80;;;;;;5051135;28;20402;-65
2021/04/07 07:49:58;;;;;;;2.87;2.60;;;4.10;28.70;;;;;;5051270;28;20172;-66
2021/04/07 07:52:29;;;;;;;4.13;3.80;;;4.30;29.30;;;;;;5050936;28;20425;-64
2021/04/07 07:54:54;;;;;;;5.83;3.30;;;4.50;28.50;;;;;;5058992;28;20816;-65
2021/04/07 07:57:20;;;;;;;2.60;2.50;;;4.50;28.50;;;;;;5059877;28;20418;-65
2021/04/07 07:59:46;;;;;;;3.27;2.90;;;4.40;28.40;;;;;;5051145;28;20403;-64
2021/04/07 08:02:25;;;;;;;3.47;3.00;;;4.20;28.70;;;;;;5067951;28;20634;-64
2021/04/07 08:04:50;;;;;;;5.00;3.07;;;3.80;29.90;;;;;;5070579;28;20264;-64
2021/04/07 08:07:17;;;;;;;4.63;2.80;;;4.00;29.70;;;;;;5071071;28;20406;-65
2021/04/07 08:09:42;;;;;;;3.23;3.00;;;4.00;30.30;;;;;;5055306;28;20562;-67
2021/04/07 08:12:10;;;;;;;2.70;2.60;;;4.30;29.50;;;;;;5051051;28;20403;-65
2021/04/07 08:14:38;;;;;;;5.40;2.47;;;4.10;28.20;;;;;;5050860;28;20175;-65
2021/04/07 08:17:04;;;;;;;3.10;2.90;;;4.20;29.10;;;;;;5050803;28;20407;-66
2021/04/07 08:19:33;;;;;;;3.10;2.90;;;4.30;28.90;;;;;;5063994;28;20850;-66
2021/04/07 08:22:01;;;;;;;2.67;2.50;;;4.50;28.90;;;;;;5073029;28;20942;-65
2021/04/07 08:24:29;;;;;;;6.80;4.73;;;4.70;28.60;;;;;;5074076;28;20556;-65
2021/04/07 08:26:57;;;;;;;4.23;2.97;;;4.60;28.60;;;;;;5054128;28;20409;-67
2021/04/07 08:29:23;;;;;;;3.57;3.37;;;4.70;28.70;;;;;;5074302;28;20565;-66
2021/04/07 08:31:50;;;;;;;3.50;3.20;;;4.90;28.80;;;;;;5074132;28;20470;-66
2021/04/07 08:34:18;;;;;;;4.00;3.00;;;4.80;28.70;;;;;;5074239;28;20417;-65
2021/04/07 08:36:45;;;;;;;3.10;2.90;;;4.50;29.20;;;;;;5074427;28;20854;-66
2021/04/07 08:39:13;;;;;;;3.37;3.17;;;4.60;30.00;;;;;;5074276;28;20405;-66
2021/04/07 08:41:40;;;;;;;4.53;3.00;;;4.60;31.10;;;;;;5074234;28;20901;-66
2021/04/07 08:44:06;;;;;;;5.17;2.60;;;4.30;31.90;;;;;;5073899;28;20982;-63
2021/04/07 08:46:48;;;;;;;8.80;3.00;;;4.50;31.60;;;;;;5062039;28;20830;-66
2021/04/07 08:49:37;;;;;;;3.20;2.60;;;4.60;33.00;;;;;;5054162;28;20946;-65
2021/04/07 08:52:11;;;;;;;3.17;2.87;;;4.70;30.60;;;;;;5054188;28;20407;-64
2021/04/07 08:54:48;;;;;;;3.50;2.63;;;4.90;31.10;;;;;;5053466;28;20444;-65
2021/04/07 08:57:34;;;;;;;3.20;3.03;;;5.10;29.50;;;;;;5053723;28;20821;-65
2021/04/07 09:00:03;;;;;;;2.97;2.77;;;5.20;28.50;;;;;;5053707;28;20417;-66
2021/04/07 09:02:30;;;;;;;3.03;2.83;;;4.80;28.70;;;;;;5054130;28;20905;-66
2021/04/07 09:05:07;;;;;;;3.10;2.87;;;4.70;29.50;;;;;;5053391;28;20462;-65
2021/04/07 09:07:42;;;;;;;3.50;2.77;;;4.60;29.40;;;;;;5053770;28;20918;-67
2021/04/07 09:10:19;;;;;;;3.10;2.93;;;4.40;32.00;;;;;;5053624;28;20421;-65
2021/04/07 09:12:47;;;;;;;3.90;3.60;;;4.50;32.90;;;;;;5053702;28;20933;-66
2021/04/07 09:15:21;;;;;;;4.17;3.70;;;4.60;33.50;;;;;;5053367;28;20430;-66
2021/04/07 09:17:55;;;;;;;3.63;3.33;;;4.50;34.10;;;;;;5056643;28;20431;-66
2021/04/07 09:20:38;;;;;;;3.73;3.53;;;4.40;34.20;;;;;;5067549;28;20426;-66
2021/04/07 09:23:29;;;;;;;3.90;3.60;;;4.50;35.00;;;;;;5053020;28;20414;-65
2021/04/07 09:26:09;;;;;;;3.60;3.30;;;4.40;34.30;;;;;;5067266;28;21003;-66
2021/04/07 09:28:40;;;;;;;4.10;3.40;;;4.60;33.30;;;;;;5063442;28;20765;-67
2021/04/07 09:31:13;;;;;;;2.80;2.60;;;4.80;32.20;;;;;;5073220;28;20909;-67
2021/04/07 09:33:42;;;;;;;4.00;3.70;;;4.60;30.80;;;;;;5073286;28;20816;-66
2021/04/07 09:36:09;;;;;;;4.03;3.40;;;4.80;31.80;;;;;;5072928;28;20433;-66
2021/04/07 09:38:43;;;;;;;4.40;4.10;;;4.70;30.50;;;;;;5056540;28;20407;-67
2021/04/07 09:41:14;;;;;;;4.70;3.23;;;4.90;30.70;;;;;;5053136;28;20406;-67
2021/04/07 09:43:41;;;;;;;3.40;3.20;;;5.10;31.70;;;;;;5052793;28;20450;-67
2021/04/07 09:46:07;;;;;;;4.10;3.80;;;5.00;30.50;;;;;;5052562;28;20490;-66
2021/04/07 09:48:44;;;;;;;3.40;3.20;;;4.90;29.80;;;;;;5053385;28;20434;-65
2021/04/07 09:51:36;;;;;;;3.43;3.17;;;5.10;28.90;;;;;;5061934;28;20249;-67
2021/04/07 09:54:21;;;;;;;3.13;2.83;;;5.40;27.70;;;;;;5043287;28;20427;-62
2021/04/07 09:56:54;;;;;;;5.93;3.13;;;5.60;27.10;;;;;;5051923;28;20464;-64
2021/04/07 09:59:35;;;;;;;2.97;2.87;;;5.90;26.90;;;;;;5052106;28;20417;-64
2021/04/07 10:02:12;;;;;;;4.33;3.20;;;6.00;26.30;;;;;;5055539;28;20415;-65
2021/04/07 10:04:44;;;;;;;6.13;4.00;;;5.90;27.00;;;;;;5054661;28;20452;-63
2021/04/07 10:07:09;;;;;;;4.60;3.40;;;5.90;27.10;;;;;;5072376;28;20406;-65
2021/04/07 10:09:35;;;;;;;4.47;2.97;;;5.60;26.40;;;;;;5069701;28;20497;-65
2021/04/07 10:12:01;;;;;;;3.43;3.13;;;5.60;27.70;;;;;;5052428;28;20631;-64
2021/04/07 10:14:27;;;;;;;6.00;3.47;;;5.50;27.50;;;;;;5052299;28;20168;-65
2021/04/07 10:16:52;;;;;;;5.43;3.37;;;5.50;27.80;;;;;;5051794;28;20414;-65
2021/04/07 10:19:18;;;;;;;5.40;3.40;;;5.40;26.60;;;;;;5052118;28;20198;-65
2021/04/07 10:21:45;;;;;;;4.77;3.13;;;5.20;27.60;;;;;;5052300;28;20655;-63
2021/04/07 10:24:15;;;;;;;3.23;2.73;;;5.10;28.10;;;;;;5055843;28;20203;-64
2021/04/07 10:26:42;;;;;;;3.97;3.70;;;5.40;29.10;;;;;;5062544;28;20516;-64
2021/04/07 10:29:09;;;;;;;4.40;3.20;;;5.30;29.00;;;;;;5072184;28;20460;-65
2021/04/07 10:31:35;;;;;;;4.90;3.83;;;5.40;29.10;;;;;;5072241;28;20406;-64
2021/04/07 10:34:04;;;;;;;3.93;3.60;;;5.20;29.90;;;;;;5071841;28;20747;-64
2021/04/07 10:36:30;;;;;;;4.00;3.60;;;5.20;31.00;;;;;;5060868;28;20200;-66
2021/04/07 10:38:57;;;;;;;3.03;2.83;;;5.20;29.90;;;;;;5051843;28;20419;-66
2021/04/07 10:41:25;;;;;;;5.63;3.57;;;5.30;30.00;;;;;;5052372;28;20902;-66
2021/04/07 10:43:51;;;;;;;3.93;3.03;;;5.10;29.70;;;;;;5051723;28;20821;-65
2021/04/07 10:46:16;;;;;;;5.40;3.50;;;5.10;28.90;;;;;;5051548;28;20430;-64
2021/04/07 10:48:42;;;;;;;3.90;2.80;;;5.00;28.80;;;;;;5051652;28;20257;-63
2021/04/07 10:51:09;;;;;;;3.47;3.17;;;5.00;27.80;;;;;;5051954;28;20215;-64
2021/04/07 10:53:42;;;;;;;4.10;2.90;;;5.10;28.30;;;;;;5050366;28;20415;-64
2021/04/07 10:56:20;;;;;;;3.00;2.67;;;5.20;27.50;;;;;;5051418;28;20434;-65
2021/04/07 10:59:01;;;;;;;2.50;2.33;;;5.40;26.60;;;;;;5051811;28;20821;-64
2021/04/07 11:01:39;;;;;;;2.60;2.40;;;5.50;25.80;;;;;;5051874;28;20482;-64
2021/04/07 11:04:14;;;;;;;4.13;2.70;;;5.50;25.00;;;;;;5051404;28;20465;-64
2021/04/07 11:06:40;;;;;;;3.40;3.10;;;5.40;25.30;;;;;;5051479;28;20445;-64
2021/04/07 11:09:06;;;;;;;3.20;3.00;;;5.70;25.00;;;;;;5051647;28;20502;-64
2021/04/07 11:11:32;;;;;;;3.53;2.60;;;5.60;25.20;;;;;;5051545;28;20497;-63
2021/04/07 11:13:58;;;;;;;3.50;3.10;;;5.80;26.00;;;;;;5051098;28;20451;-63
2021/04/07 11:16:31;;;;;;;2.93;2.67;;;5.90;24.90;;;;;;5051342;28;20793;-63
2021/04/07 11:18:56;;;;;;;2.83;2.63;;;6.00;25.00;;;;;;5051188;28;20197;-64
2021/04/07 11:21:22;;;;;;;3.93;3.53;;;6.10;24.20;;;;;;5051555;28;20485;-64
2021/04/07 11:23:47;;;;;;;3.20;3.00;;;6.00;23.70;;;;;;5057961;28;20207;-63
2021/04/07 11:26:13;;;;;;;2.70;2.60;;;6.00;23.80;;;;;;5063022;28;20210;-64
2021/04/07 11:28:40;;;;;;;2.33;2.20;;;6.20;23.50;;;;;;5054972;28;20188;-64
2021/04/07 11:31:09;;;;;;;2.80;2.63;;;6.60;23.50;;;;;;5062821;28;20182;-64
2021/04/07 11:33:40;;;;;;;3.00;2.80;;;6.60;23.60;;;;;;5069751;28;20409;-64
2021/04/07 11:36:18;;;;;;;3.20;3.00;;;6.80;22.80;;;;;;5051159;28;20428;-64
2021/04/07 11:38:50;;;;;;;6.43;3.60;;;6.80;22.70;;;;;;5062005;28;20409;-65
2021/04/07 11:46:30;;;;;;;3.00;2.70;;;7.60;20.60;;;;;;5071226;28;20430;-66
2021/04/07 11:48:56;;;;;;;3.90;2.17;;;8.00;19.30;;;;;;5071287;28;20415;-65
2021/04/07 11:51:22;;;;;;;4.60;2.80;;;7.80;19.10;;;;;;5067401;28;20439;-66
2021/04/07 11:53:48;;;;;;;3.80;3.00;;;7.70;19.80;;;;;;5065756;28;20275;-65
2021/04/07 11:56:15;;;;;;;3.33;2.97;;;7.60;19.40;;;;;;5058775;28;20198;-66
2021/04/07 11:58:41;;;;;;;3.10;2.90;;;7.20;20.30;;;;;;5068068;28;20447;-66
2021/04/07 12:01:06;;;;;;;4.10;3.00;;;7.30;20.30;;;;;;5054584;28;20824;-65
2021/04/07 12:03:32;;;;;;;3.07;2.87;;;7.10;20.00;;;;;;5073730;28;20203;-66
2021/04/07 12:05:58;;;;;;;4.43;2.70;;;7.10;20.20;;;;;;5073516;28;20193;-66
2021/04/07 12:08:24;;;;;;;3.50;2.60;;;7.20;19.90;;;;;;5054055;28;20409;-67
2021/04/07 12:10:51;;;;;;;2.97;2.77;;;7.20;22.10;;;;;;5074023;28;20171;-66
2021/04/07 12:13:20;;;;;;;4.40;3.50;;;7.10;20.10;;;;;;5056131;28;20244;-67
2021/04/07 12:15:46;;;;;;;3.63;2.90;;;7.10;20.30;;;;;;5071749;28;20471;-65
2021/04/07 12:18:11;;;;;;;7.30;2.80;;;6.60;21.00;;;;;;5070772;28;20448;-66
2021/04/07 12:20:37;;;;;;;3.27;2.97;;;6.30;22.50;;;;;;5074216;28;20176;-64
2021/04/07 12:23:03;;;;;;;4.03;3.10;;;6.40;23.50;;;;;;5072975;28;20564;-66
2021/04/07 12:25:31;;;;;;;6.30;3.07;;;6.40;22.50;;;;;;5067377;28;20211;-67
2021/04/07 12:27:58;;;;;;;3.10;2.80;;;6.30;22.70;;;;;;5065797;28;20410;-65
2021/04/07 12:30:24;;;;;;;6.60;3.70;;;6.20;23.00;;;;;;5039525;28;20861;-67
2021/04/07 12:32:50;;;;;;;5.00;2.50;;;6.50;22.80;;;;;;5061669;28;20422;-67
2021/04/07 12:35:16;;;;;;;3.10;2.30;;;6.50;22.70;;;;;;5063066;28;20444;-66
2021/04/07 12:37:43;;;;;;;2.57;2.37;;;6.70;23.10;;;;;;5063911;28;20406;-67
2021/04/07 12:40:13;;;;;;;4.30;2.87;;;6.50;23.80;;;;;;5062076;28;20460;-65
2021/04/07 12:42:39;;;;;;;2.30;2.10;;;6.80;22.30;;;;;;5062869;28;20775;-65
2021/04/07 12:45:07;;;;;;;3.93;3.00;;;6.80;23.30;;;;;;5063896;28;20457;-66
2021/04/07 12:47:33;;;;;;;3.07;2.77;;;6.60;22.40;;;;;;5063456;28;20409;-67
2021/04/07 12:49:58;;;;;;;2.50;2.33;;;6.50;22.30;;;;;;5062789;28;20410;-65
2021/04/07 12:52:24;;;;;;;2.97;2.77;;;6.30;22.90;;;;;;5061734;28;20517;-66
2021/04/07 12:54:50;;;;;;;6.67;2.67;;;6.60;23.60;;;;;;5060659;28;20191;-65
2021/04/07 12:57:16;;;;;;;5.30;2.37;;;6.70;22.30;;;;;;5062477;28;20543;-66
2021/04/07 12:59:42;;;;;;;2.73;2.17;;;6.60;23.40;;;;;;5062225;28;20254;-67
2021/04/07 13:02:07;;;;;;;2.80;2.60;;;6.50;25.40;;;;;;5063840;28;20501;-67
2021/04/07 13:04:33;;;;;;;3.00;2.80;;;6.30;23.90;;;;;;5061471;28;20231;-66
2021/04/07 13:06:58;;;;;;;2.80;2.60;;;6.20;24.50;;;;;;5062157;28;20234;-66